Plato Center, Illinois
Current Conditions -  °F | °C
As of 5:52 AM on Thursday 29 Jan 2015 (Local Time) from KDPA Reporting Station
Overcast Overcast  
Wind Chill: 28°   Ceiling: 2400
Heat Index: 33°   Visibility: 10mi
Dew Point: 28°   Wind: 6mph
Humidity: 82%   Direction: NA
Pressure: 29.71"   Gusts: NA
Location:  42.03°N, 88.43°W
Report Text: KDPA 291152Z VRB05KT 10SM OVC024 01/M02 A2971 RMK AO2 SLP067 70001 T00061022 10017 21028 55004
Loading
Personal Weather Stations






























Interactive Weather Map New forecast layout! Learn more

10-Day Weather Forecast

Advertisements
Track Severe Weather on mobile